Time;durP1;ratioP1;P1;durP2;ratioP2;P2;SDS_P1;SDS_P2;PMS_P1;PMS_P2;Temp;Humidity;BMP_temperature;BMP_pressure;BME280_temperature;BME280_humidity;BME280_pressure;Samples;Min_cycle;Max_cycle;Signal;HPM_P1;HPM_P2
2023/10/03 00:01:41;;;;;;;42.88;24.30;;;;;;;;;;4946123;28;20381;-73
2023/10/03 00:04:09;;;;;;;40.65;25.30;;;;;;;;;;4944945;28;20048;-72
2023/10/03 00:06:35;;;;;;;42.40;24.65;;;;;;;;;;4939178;28;20047;-72
2023/10/03 00:09:01;;;;;;;39.28;24.10;;;;;;;;;;4940352;29;20031;-72
2023/10/03 00:11:27;;;;;;;39.40;24.88;;;;;;;;;;4946961;28;20059;-72
2023/10/03 00:13:54;;;;;;;41.47;25.38;;;;;;;;;;4933057;29;20465;-72
2023/10/03 00:16:21;;;;;;;42.20;24.92;;;;;;;;;;4931924;28;20098;-73
2023/10/03 00:18:47;;;;;;;45.22;25.25;;;;;;;;;;4916730;29;20047;-72
2023/10/03 00:21:13;;;;;;;39.70;25.05;;;;;;;;;;4911533;29;20495;-72
2023/10/03 00:23:40;;;;;;;43.10;25.25;;;;;;;;;;4940683;28;20055;-72
2023/10/03 00:26:15;;;;;;;41.42;25.15;;;;;;;;;;4918568;29;20098;-72
2023/10/03 00:28:41;;;;;;;46.55;25.88;;;;;;;;;;4942109;28;20052;-72
2023/10/03 00:31:09;;;;;;;37.65;24.25;;;;;;;;;;4915629;28;20464;-73
2023/10/03 00:33:36;;;;;;;43.17;25.80;;;;;;;;;;4933370;28;20074;-72
2023/10/03 00:36:03;;;;;;;43.75;25.48;;;;;;;;;;4915210;29;20151;-73
2023/10/03 00:38:29;;;;;;;41.50;24.98;;;;;;;;;;4931577;28;20047;-72
2023/10/03 00:40:55;;;;;;;40.17;23.88;;;;;;;;;;4931980;28;20051;-72
2023/10/03 00:43:22;;;;;;;40.42;25.23;;;;;;;;;;4936214;28;20403;-72
2023/10/03 00:45:48;;;;;;;42.15;24.70;;;;;;;;;;4940816;28;20090;-72
2023/10/03 00:48:18;;;;;;;41.38;24.98;;;;;;;;;;4924273;29;20087;-72
2023/10/03 00:50:44;;;;;;;40.88;24.70;;;;;;;;;;4925794;29;20131;-72
2023/10/03 00:53:13;;;;;;;39.83;24.38;;;;;;;;;;4922746;29;20043;-73
2023/10/03 00:55:40;;;;;;;40.15;24.50;;;;;;;;;;4923402;29;20070;-73
2023/10/03 00:58:17;;;;;;;43.17;24.95;;;;;;;;;;4920355;29;20681;-73
2023/10/03 01:00:50;;;;;;;44.70;25.13;;;;;;;;;;4946632;29;20069;-73
2023/10/03 01:03:38;;;;;;;39.35;24.40;;;;;;;;;;4946942;28;20135;-73
2023/10/03 01:06:05;;;;;;;39.90;24.50;;;;;;;;;;4940389;28;20079;-73
2023/10/03 01:08:32;;;;;;;40.08;24.63;;;;;;;;;;4938576;28;20078;-72
2023/10/03 01:10:58;;;;;;;38.38;23.95;;;;;;;;;;4930425;29;20055;-73
2023/10/03 01:13:25;;;;;;;40.08;23.55;;;;;;;;;;4937539;29;20055;-73
2023/10/03 01:15:55;;;;;;;39.33;24.33;;;;;;;;;;4932330;29;20043;-73
2023/10/03 01:18:22;;;;;;;36.50;23.05;;;;;;;;;;4915423;29;20090;-73
2023/10/03 01:20:51;;;;;;;37.17;22.38;;;;;;;;;;4915964;29;20055;-73
2023/10/03 01:23:19;;;;;;;40.63;22.73;;;;;;;;;;4910732;29;20054;-73
2023/10/03 01:25:45;;;;;;;37.53;22.00;;;;;;;;;;4948787;28;20113;-73
2023/10/03 01:28:12;;;;;;;36.50;21.88;;;;;;;;;;4914479;29;20047;-73
2023/10/03 01:30:40;;;;;;;35.58;22.25;;;;;;;;;;4935373;28;20098;-73
2023/10/03 01:33:07;;;;;;;40.80;22.00;;;;;;;;;;4932320;28;20043;-72
2023/10/03 01:35:33;;;;;;;38.97;22.02;;;;;;;;;;4941668;28;20066;-74
2023/10/03 01:37:59;;;;;;;37.65;21.40;;;;;;;;;;4918178;29;20040;-72
2023/10/03 01:40:26;;;;;;;39.08;22.20;;;;;;;;;;4925393;29;20058;-72
2023/10/03 01:42:52;;;;;;;37.03;21.08;;;;;;;;;;4937797;28;20055;-72
2023/10/03 01:45:21;;;;;;;38.40;22.45;;;;;;;;;;4938992;28;20106;-72
2023/10/03 01:47:51;;;;;;;39.15;20.77;;;;;;;;;;4947901;28;20050;-72
2023/10/03 01:50:21;;;;;;;39.00;22.10;;;;;;;;;;4949590;28;20050;-73
2023/10/03 01:52:47;;;;;;;36.35;20.80;;;;;;;;;;4941433;29;20048;-73
2023/10/03 01:55:14;;;;;;;35.83;21.10;;;;;;;;;;4924582;29;20431;-72
2023/10/03 01:57:41;;;;;;;37.13;21.00;;;;;;;;;;4915513;29;20043;-72
2023/10/03 02:00:20;;;;;;;39.97;21.35;;;;;;;;;;4921586;28;20048;-72
2023/10/03 02:02:46;;;;;;;37.10;20.52;;;;;;;;;;4919508;29;20134;-72
2023/10/03 02:05:14;;;;;;;37.10;19.95;;;;;;;;;;4948868;28;20047;-73
2023/10/03 02:07:41;;;;;;;37.38;20.52;;;;;;;;;;4948601;28;20058;-72
2023/10/03 02:10:07;;;;;;;36.00;20.38;;;;;;;;;;4949145;28;20043;-74
2023/10/03 02:12:33;;;;;;;34.92;20.42;;;;;;;;;;4931158;29;20059;-74
2023/10/03 02:15:07;;;;;;;37.45;20.05;;;;;;;;;;4941277;28;20169;-72
2023/10/03 02:17:34;;;;;;;33.40;18.75;;;;;;;;;;4918396;29;20099;-72
2023/10/03 02:20:01;;;;;;;35.78;19.55;;;;;;;;;;4928923;29;20058;-72
2023/10/03 02:22:27;;;;;;;36.00;19.70;;;;;;;;;;4931426;29;20051;-72
2023/10/03 02:24:53;;;;;;;35.40;18.77;;;;;;;;;;4946760;28;20062;-72
2023/10/03 02:27:19;;;;;;;34.17;19.42;;;;;;;;;;4929700;29;20511;-72
2023/10/03 02:29:51;;;;;;;34.92;18.65;;;;;;;;;;4928064;29;20213;-72
2023/10/03 02:32:17;;;;;;;35.92;19.75;;;;;;;;;;4952743;28;20153;-72
2023/10/03 02:34:43;;;;;;;33.10;18.75;;;;;;;;;;4931987;29;20138;-72
2023/10/03 02:37:09;;;;;;;34.17;19.15;;;;;;;;;;4925302;29;20051;-72
2023/10/03 02:39:39;;;;;;;31.88;18.38;;;;;;;;;;4950256;28;20043;-73
2023/10/03 02:42:06;;;;;;;35.80;19.48;;;;;;;;;;4923536;29;20129;-72
2023/10/03 02:44:33;;;;;;;35.17;18.75;;;;;;;;;;4926632;29;20043;-72
2023/10/03 02:46:59;;;;;;;33.90;18.35;;;;;;;;;;4923179;29;20047;-72
2023/10/03 02:49:25;;;;;;;33.47;18.75;;;;;;;;;;4941928;28;20039;-73
2023/10/03 02:51:51;;;;;;;35.97;18.27;;;;;;;;;;4937714;29;20059;-72
2023/10/03 02:54:17;;;;;;;35.38;18.33;;;;;;;;;;4927847;29;20090;-72
2023/10/03 02:56:43;;;;;;;34.90;18.23;;;;;;;;;;4941424;28;20047;-71
2023/10/03 02:59:09;;;;;;;32.30;18.38;;;;;;;;;;4951915;29;20392;-72
2023/10/03 03:01:37;;;;;;;34.75;17.38;;;;;;;;;;4943820;28;20073;-72
2023/10/03 03:04:04;;;;;;;34.45;18.75;;;;;;;;;;4918972;29;20035;-74
2023/10/03 03:06:31;;;;;;;34.28;18.25;;;;;;;;;;4920591;28;20047;-75
2023/10/03 03:08:57;;;;;;;35.50;18.25;;;;;;;;;;4932770;28;20153;-74
2023/10/03 03:11:26;;;;;;;33.65;17.85;;;;;;;;;;4930111;29;20043;-74
2023/10/03 03:13:54;;;;;;;34.35;17.75;;;;;;;;;;4923736;29;20059;-74
2023/10/03 03:16:20;;;;;;;33.13;18.15;;;;;;;;;;4933230;29;20151;-74
2023/10/03 03:18:49;;;;;;;36.22;18.88;;;;;;;;;;4923074;29;20118;-74
2023/10/03 03:21:20;;;;;;;32.72;17.52;;;;;;;;;;4920477;28;20102;-75
2023/10/03 03:23:56;;;;;;;34.95;18.38;;;;;;;;;;4944307;28;20458;-75
2023/10/03 03:26:29;;;;;;;34.28;17.88;;;;;;;;;;4916941;29;20098;-74
2023/10/03 03:28:55;;;;;;;33.72;17.85;;;;;;;;;;4927647;29;20044;-74
2023/10/03 03:31:31;;;;;;;29.55;16.38;;;;;;;;;;4918604;29;20126;-75
2023/10/03 03:33:57;;;;;;;33.63;17.52;;;;;;;;;;4942629;28;20050;-72
2023/10/03 03:36:30;;;;;;;32.55;17.98;;;;;;;;;;4940825;28;20039;-74
2023/10/03 03:38:58;;;;;;;33.33;17.50;;;;;;;;;;4947935;29;20157;-72
2023/10/03 03:41:24;;;;;;;35.38;17.92;;;;;;;;;;4915023;29;20052;-72
2023/10/03 03:43:50;;;;;;;31.15;17.02;;;;;;;;;;4925774;29;20086;-72
2023/10/03 03:46:18;;;;;;;32.78;17.70;;;;;;;;;;4939294;29;20054;-71
2023/10/03 03:48:44;;;;;;;31.33;17.35;;;;;;;;;;4920587;29;20058;-73
2023/10/03 03:51:14;;;;;;;33.88;17.90;;;;;;;;;;4919714;29;20390;-73
2023/10/03 03:53:43;;;;;;;31.88;16.33;;;;;;;;;;4944768;28;20154;-73
2023/10/03 03:56:12;;;;;;;30.55;16.48;;;;;;;;;;4940704;29;20051;-73
2023/10/03 03:58:45;;;;;;;29.23;16.38;;;;;;;;;;4945171;28;20052;-72
2023/10/03 04:01:14;;;;;;;33.53;17.30;;;;;;;;;;4941215;28;20109;-73
2023/10/03 04:03:45;;;;;;;32.88;16.50;;;;;;;;;;4919579;29;20052;-73
2023/10/03 04:06:11;;;;;;;31.02;16.20;;;;;;;;;;4923679;29;20138;-73
2023/10/03 04:08:38;;;;;;;30.77;16.85;;;;;;;;;;4920261;29;20051;-73
2023/10/03 04:11:07;;;;;;;29.63;16.70;;;;;;;;;;4930773;29;20149;-72
2023/10/03 04:13:39;;;;;;;28.73;15.98;;;;;;;;;;4928089;29;20539;-73
2023/10/03 04:16:11;;;;;;;33.20;16.80;;;;;;;;;;4927413;29;20446;-73
2023/10/03 04:18:37;;;;;;;31.08;16.30;;;;;;;;;;4928420;29;20395;-73
2023/10/03 04:21:04;;;;;;;30.58;16.67;;;;;;;;;;4945181;28;20504;-73
2023/10/03 04:23:32;;;;;;;27.90;15.63;;;;;;;;;;4929136;28;20079;-72
2023/10/03 04:25:59;;;;;;;30.67;16.55;;;;;;;;;;4945777;28;20055;-73
2023/10/03 04:28:25;;;;;;;33.10;16.70;;;;;;;;;;4937215;28;20087;-73
2023/10/03 04:30:53;;;;;;;31.42;16.55;;;;;;;;;;4944652;28;20467;-73
2023/10/03 04:33:21;;;;;;;30.75;16.35;;;;;;;;;;4930091;29;20083;-73
2023/10/03 04:35:48;;;;;;;28.77;16.05;;;;;;;;;;4945863;28;20082;-73
2023/10/03 04:38:16;;;;;;;30.00;16.48;;;;;;;;;;4925637;29;20043;-72
2023/10/03 04:40:43;;;;;;;33.00;16.52;;;;;;;;;;4943654;28;20059;-73
2023/10/03 04:43:15;;;;;;;30.65;16.05;;;;;;;;;;4932660;28;20138;-73
2023/10/03 04:45:42;;;;;;;28.00;15.52;;;;;;;;;;4940705;28;20583;-72
2023/10/03 04:48:10;;;;;;;30.98;16.15;;;;;;;;;;4920433;29;20134;-72
2023/10/03 04:50:37;;;;;;;31.42;16.00;;;;;;;;;;4937089;28;20055;-73
2023/10/03 04:53:03;;;;;;;30.42;16.35;;;;;;;;;;4941821;28;20126;-73
2023/10/03 04:55:30;;;;;;;27.85;15.13;;;;;;;;;;4939112;28;20503;-72
2023/10/03 04:57:56;;;;;;;31.10;15.27;;;;;;;;;;4940996;28;20070;-73
2023/10/03 05:00:23;;;;;;;28.05;15.18;;;;;;;;;;4943190;29;20044;-72
2023/10/03 05:02:49;;;;;;;29.83;15.60;;;;;;;;;;4938466;29;20174;-73
2023/10/03 05:05:18;;;;;;;31.17;15.40;;;;;;;;;;4944196;28;20043;-73
2023/10/03 05:07:45;;;;;;;30.30;15.65;;;;;;;;;;4940632;29;20050;-73
2023/10/03 05:10:12;;;;;;;30.45;16.55;;;;;;;;;;4933872;28;20052;-73
2023/10/03 05:12:38;;;;;;;31.42;15.98;;;;;;;;;;4947649;28;20051;-72
2023/10/03 05:15:07;;;;;;;32.83;15.05;;;;;;;;;;4937087;28;20134;-72
2023/10/03 05:17:33;;;;;;;30.48;15.52;;;;;;;;;;4946441;28;20051;-72
2023/10/03 05:19:59;;;;;;;29.48;14.82;;;;;;;;;;4932099;28;20039;-73
2023/10/03 05:22:25;;;;;;;31.95;15.48;;;;;;;;;;4934296;29;20131;-72
2023/10/03 05:24:52;;;;;;;27.23;14.68;;;;;;;;;;4934416;28;20048;-74
2023/10/03 05:27:18;;;;;;;29.95;14.70;;;;;;;;;;4913519;29;20039;-74
2023/10/03 05:29:45;;;;;;;30.65;14.82;;;;;;;;;;4932569;28;20067;-72
2023/10/03 05:32:12;;;;;;;29.50;15.18;;;;;;;;;;4932403;29;20444;-72
2023/10/03 05:34:39;;;;;;;28.60;13.93;;;;;;;;;;4925107;29;20047;-72
2023/10/03 05:37:05;;;;;;;28.70;14.23;;;;;;;;;;4932043;29;20457;-72
2023/10/03 05:39:31;;;;;;;30.95;14.40;;;;;;;;;;4933472;28;20046;-72
2023/10/03 05:41:57;;;;;;;33.10;15.07;;;;;;;;;;4932373;29;20138;-72
2023/10/03 05:44:24;;;;;;;30.27;15.05;;;;;;;;;;4947150;28;20098;-72
2023/10/03 05:46:55;;;;;;;29.58;14.38;;;;;;;;;;4922424;29;20063;-72
2023/10/03 05:49:22;;;;;;;38.58;15.63;;;;;;;;;;4914725;29;20048;-72
2023/10/03 05:51:49;;;;;;;30.98;15.15;;;;;;;;;;4936834;29;20050;-74
2023/10/03 05:54:15;;;;;;;32.28;15.30;;;;;;;;;;4935587;28;20048;-74
2023/10/03 05:56:41;;;;;;;32.45;15.05;;;;;;;;;;4935307;28;20044;-72
2023/10/03 05:59:07;;;;;;;30.85;15.82;;;;;;;;;;4914409;29;20111;-72
2023/10/03 06:01:33;;;;;;;34.58;15.68;;;;;;;;;;4914232;28;20050;-71
2023/10/03 06:03:59;;;;;;;33.08;15.93;;;;;;;;;;4932205;28;20134;-72
2023/10/03 06:06:28;;;;;;;34.05;15.70;;;;;;;;;;4932288;28;20051;-71
2023/10/03 06:08:54;;;;;;;34.78;15.43;;;;;;;;;;4949104;29;20133;-74
2023/10/03 06:11:20;;;;;;;38.08;16.65;;;;;;;;;;4930675;28;20051;-74
2023/10/03 06:13:46;;;;;;;32.65;15.68;;;;;;;;;;4912293;29;20059;-72
2023/10/03 06:16:14;;;;;;;26.90;14.68;;;;;;;;;;4930860;28;20146;-74
2023/10/03 06:18:41;;;;;;;35.22;16.05;;;;;;;;;;4914542;29;20071;-73
2023/10/03 06:21:10;;;;;;;34.45;15.80;;;;;;;;;;4933066;28;20051;-73
2023/10/03 06:23:39;;;;;;;32.15;14.85;;;;;;;;;;4940217;29;20095;-74
2023/10/03 06:26:05;;;;;;;32.88;14.00;;;;;;;;;;4932517;28;20054;-74
2023/10/03 06:28:31;;;;;;;29.55;13.45;;;;;;;;;;4911311;29;20048;-74
2023/10/03 06:30:58;;;;;;;34.30;14.63;;;;;;;;;;4943857;28;20134;-74
2023/10/03 06:33:24;;;;;;;29.10;14.10;;;;;;;;;;4934691;29;20040;-73
2023/10/03 06:35:50;;;;;;;32.78;15.32;;;;;;;;;;4927567;29;20044;-75
2023/10/03 06:38:17;;;;;;;31.02;14.35;;;;;;;;;;4943744;29;20058;-75
2023/10/03 06:40:44;;;;;;;29.67;13.40;;;;;;;;;;4923333;29;20063;-75
2023/10/03 06:43:10;;;;;;;31.15;14.10;;;;;;;;;;4941286;29;20134;-74
2023/10/03 06:45:36;;;;;;;29.08;12.57;;;;;;;;;;4946396;29;20040;-73
2023/10/03 06:48:03;;;;;;;30.42;13.23;;;;;;;;;;4941261;29;20131;-73
2023/10/03 06:50:33;;;;;;;28.77;11.70;;;;;;;;;;4948718;29;20078;-73
2023/10/03 06:53:01;;;;;;;31.63;11.73;;;;;;;;;;4923913;29;20068;-72
2023/10/03 06:55:27;;;;;;;25.35;11.48;;;;;;;;;;4919616;29;20130;-72
2023/10/03 06:57:53;;;;;;;24.85;11.18;;;;;;;;;;4919864;29;20539;-73
2023/10/03 07:00:21;;;;;;;26.67;10.80;;;;;;;;;;4945439;29;20047;-73
2023/10/03 07:02:48;;;;;;;22.92;10.52;;;;;;;;;;4927822;29;20125;-73
2023/10/03 07:05:14;;;;;;;27.30;9.95;;;;;;;;;;4948252;28;20047;-72
2023/10/03 07:07:40;;;;;;;23.73;9.35;;;;;;;;;;4927569;29;20123;-73
2023/10/03 07:10:07;;;;;;;26.55;9.65;;;;;;;;;;4941362;28;20062;-73
2023/10/03 07:15:23;;;;;;;19.85;8.45;;;;;;;;;;4919187;29;20090;-73
2023/10/03 07:17:50;;;;;;;21.30;8.73;;;;;;;;;;4952299;28;20175;-72
2023/10/03 07:20:17;;;;;;;18.20;8.07;;;;;;;;;;4942393;28;20035;-72
2023/10/03 07:22:43;;;;;;;20.02;8.05;;;;;;;;;;4941503;29;20122;-72
2023/10/03 07:25:09;;;;;;;19.13;8.50;;;;;;;;;;4949625;28;20431;-72
2023/10/03 07:27:36;;;;;;;19.05;8.60;;;;;;;;;;4936116;29;20055;-72
2023/10/03 07:30:03;;;;;;;20.67;8.80;;;;;;;;;;4935588;28;20054;-72
2023/10/03 07:32:31;;;;;;;22.02;9.77;;;;;;;;;;4945191;29;20083;-72
2023/10/03 07:34:57;;;;;;;24.58;9.32;;;;;;;;;;4929479;29;20450;-72
2023/10/03 07:37:24;;;;;;;24.38;9.95;;;;;;;;;;4926360;28;20046;-72
2023/10/03 07:39:50;;;;;;;24.83;9.07;;;;;;;;;;4945609;29;20043;-72
2023/10/03 07:42:17;;;;;;;21.42;8.75;;;;;;;;;;4937607;28;20051;-73
2023/10/03 07:44:44;;;;;;;24.08;9.02;;;;;;;;;;4940458;28;20444;-73
2023/10/03 07:47:12;;;;;;;23.23;7.97;;;;;;;;;;4921606;28;20062;-74
2023/10/03 07:49:42;;;;;;;20.77;7.80;;;;;;;;;;4951745;28;20527;-74
2023/10/03 07:52:08;;;;;;;24.23;8.02;;;;;;;;;;4949117;28;20186;-73
2023/10/03 07:54:36;;;;;;;21.48;7.22;;;;;;;;;;4949103;28;20047;-73
2023/10/03 07:57:06;;;;;;;21.77;7.28;;;;;;;;;;4947635;28;20071;-74
2023/10/03 07:59:32;;;;;;;19.08;7.25;;;;;;;;;;4946160;28;20047;-74
2023/10/03 08:02:05;;;;;;;18.60;6.22;;;;;;;;;;4935719;28;20051;-73
2023/10/03 08:04:37;;;;;;;16.55;4.47;;;;;;;;;;4942409;28;20070;-74
2023/10/03 08:07:04;;;;;;;15.43;4.38;;;;;;;;;;4916293;29;20376;-74
2023/10/03 08:09:31;;;;;;;12.43;4.18;;;;;;;;;;4932935;29;20040;-74
2023/10/03 08:11:57;;;;;;;14.48;3.83;;;;;;;;;;4930043;29;20074;-74
2023/10/03 08:14:24;;;;;;;10.65;3.50;;;;;;;;;;4932837;29;20488;-73
2023/10/03 08:16:51;;;;;;;13.82;3.58;;;;;;;;;;4919545;29;20055;-72
2023/10/03 08:19:27;;;;;;;12.77;3.25;;;;;;;;;;4947463;29;20043;-72
2023/10/03 08:21:53;;;;;;;;;;;;;;;;;;4932848;29;20240;-73
2023/10/03 08:24:24;;;;;;;13.07;3.40;;;;;;;;;;4945403;28;19930;-73
2023/10/03 08:26:51;;;;;;;18.92;3.63;;;;;;;;;;4924903;29;20056;-73
2023/10/03 08:29:23;;;;;;;12.60;3.30;;;;;;;;;;4916963;28;20047;-72
2023/10/03 08:31:58;;;;;;;15.13;3.40;;;;;;;;;;4942154;28;20095;-72
2023/10/03 08:34:28;;;;;;;13.07;3.20;;;;;;;;;;4924252;29;20059;-73
2023/10/03 08:36:54;;;;;;;8.98;2.72;;;;;;;;;;4915958;29;20051;-72
2023/10/03 08:39:23;;;;;;;9.43;2.55;;;;;;;;;;4933012;28;20048;-73
2023/10/03 08:41:57;;;;;;;10.30;2.28;;;;;;;;;;4942131;28;20047;-73
2023/10/03 08:44:24;;;;;;;10.35;2.30;;;;;;;;;;4916679;29;20051;-72
2023/10/03 08:46:55;;;;;;;9.70;2.55;;;;;;;;;;4931658;28;20047;-75
2023/10/03 08:49:24;;;;;;;11.02;2.35;;;;;;;;;;4915199;29;20491;-72
2023/10/03 08:51:51;;;;;;;9.30;2.10;;;;;;;;;;4931538;28;20060;-72
2023/10/03 08:54:17;;;;;;;11.70;2.00;;;;;;;;;;4915667;29;20448;-72
2023/10/03 08:56:44;;;;;;;10.68;2.13;;;;;;;;;;4914127;28;20107;-72
2023/10/03 08:59:15;;;;;;;8.60;2.08;;;;;;;;;;4915482;29;20062;-72
2023/10/03 09:01:48;;;;;;;5.93;1.85;;;;;;;;;;4914603;28;20051;-72
2023/10/03 09:04:17;;;;;;;6.47;1.60;;;;;;;;;;4930914;28;20425;-72
2023/10/03 09:06:44;;;;;;;5.85;1.50;;;;;;;;;;4927402;29;20501;-72
2023/10/03 09:09:13;;;;;;;10.05;1.75;;;;;;;;;;4915296;29;20409;-72
2023/10/03 09:11:39;;;;;;;8.60;2.00;;;;;;;;;;4929526;28;20139;-72
2023/10/03 09:14:12;;;;;;;10.23;1.90;;;;;;;;;;4926218;29;20177;-73
2023/10/03 09:16:41;;;;;;;7.65;1.60;;;;;;;;;;4914928;29;20055;-72
2023/10/03 09:19:12;;;;;;;10.75;2.05;;;;;;;;;;4932272;28;20055;-73
2023/10/03 09:21:38;;;;;;;8.77;1.92;;;;;;;;;;4948981;28;20055;-73
2023/10/03 09:24:15;;;;;;;9.63;1.80;;;;;;;;;;4943415;28;20039;-73
2023/10/03 09:26:45;;;;;;;8.45;1.70;;;;;;;;;;4911413;29;20062;-73
2023/10/03 09:29:18;;;;;;;7.30;1.52;;;;;;;;;;4930776;28;20062;-73
2023/10/03 09:31:44;;;;;;;5.93;1.30;;;;;;;;;;4931485;28;20419;-73
2023/10/03 09:34:13;;;;;;;4.13;1.30;;;;;;;;;;4931136;28;20040;-73
2023/10/03 09:36:40;;;;;;;6.13;1.50;;;;;;;;;;4938915;28;20086;-73
2023/10/03 09:39:07;;;;;;;4.55;1.15;;;;;;;;;;4936260;28;20044;-72
2023/10/03 09:41:38;;;;;;;5.45;1.20;;;;;;;;;;4933755;29;20047;-72
2023/10/03 09:44:06;;;;;;;3.85;1.27;;;;;;;;;;4935067;28;20070;-72
2023/10/03 09:46:41;;;;;;;4.95;1.30;;;;;;;;;;4931557;29;20134;-72
2023/10/03 09:49:11;;;;;;;5.10;1.30;;;;;;;;;;4914648;29;20489;-73
2023/10/03 09:51:46;;;;;;;3.70;1.20;;;;;;;;;;4931411;28;20051;-72
2023/10/03 09:54:15;;;;;;;3.17;1.20;;;;;;;;;;4914332;29;20043;-72
2023/10/03 09:56:50;;;;;;;3.53;1.20;;;;;;;;;;4930849;28;20043;-73
2023/10/03 09:59:17;;;;;;;5.65;1.23;;;;;;;;;;4914025;29;20063;-72
2023/10/03 10:01:47;;;;;;;5.43;1.50;;;;;;;;;;4931311;29;20130;-73
2023/10/03 10:04:15;;;;;;;2.20;1.27;;;;;;;;;;4914066;29;20094;-72
2023/10/03 10:06:47;;;;;;;3.08;1.02;;;;;;;;;;4914181;29;20107;-73
2023/10/03 10:09:27;;;;;;;3.85;1.00;;;;;;;;;;4931096;28;20055;-72
2023/10/03 10:12:11;;;;;;;5.07;1.30;;;;;;;;;;4940436;28;20052;-72
2023/10/03 10:14:58;;;;;;;4.15;1.20;;;;;;;;;;4941036;28;20043;-71
2023/10/03 10:17:26;;;;;;;3.13;1.08;;;;;;;;;;4924386;29;20043;-72
2023/10/03 10:20:11;;;;;;;5.28;1.60;;;;;;;;;;4925468;29;20044;-72
2023/10/03 10:22:56;;;;;;;4.77;1.60;;;;;;;;;;4944758;29;20400;-72
2023/10/03 10:25:28;;;;;;;4.73;1.37;;;;;;;;;;4940539;28;20571;-76
2023/10/03 10:28:07;;;;;;;7.50;1.77;;;;;;;;;;4925959;29;20055;-71
2023/10/03 10:30:33;;;;;;;5.20;1.73;;;;;;;;;;4934706;28;20051;-71
2023/10/03 10:33:32;;;;;;;8.30;1.92;;;;;;;;;;4920401;29;20052;-70
2023/10/03 10:36:10;;;;;;;8.27;2.33;;;;;;;;;;4888932;28;20063;-72
2023/10/03 10:38:36;;;;;;;7.57;2.00;;;;;;;;;;4914105;29;20046;-71
2023/10/03 10:41:18;;;;;;;9.38;2.33;;;;;;;;;;4920186;29;20905;-71
2023/10/03 10:44:05;;;;;;;9.10;2.20;;;;;;;;;;4931307;29;20051;-70
2023/10/03 10:46:37;;;;;;;8.00;2.03;;;;;;;;;;4929917;29;20054;-73
2023/10/03 10:49:06;;;;;;;8.13;2.58;;;;;;;;;;4941629;28;20110;-71
2023/10/03 10:51:32;;;;;;;8.73;2.35;;;;;;;;;;4915717;29;20051;-71
2023/10/03 10:54:00;;;;;;;8.75;2.50;;;;;;;;;;4944815;28;20055;-71
2023/10/03 10:56:28;;;;;;;8.13;3.08;;;;;;;;;;4927831;29;20097;-70
2023/10/03 10:59:01;;;;;;;7.93;2.72;;;;;;;;;;4936597;28;20047;-70
2023/10/03 11:01:28;;;;;;;7.53;2.45;;;;;;;;;;4922305;29;20066;-71
2023/10/03 11:03:56;;;;;;;7.18;2.78;;;;;;;;;;4931791;29;20102;-70
2023/10/03 11:06:23;;;;;;;5.95;2.42;;;;;;;;;;4931271;28;20505;-71
2023/10/03 11:08:50;;;;;;;10.52;3.92;;;;;;;;;;4925456;29;20043;-70
2023/10/03 11:11:17;;;;;;;8.93;3.22;;;;;;;;;;4949006;28;20043;-70
2023/10/03 11:13:50;;;;;;;10.32;3.33;;;;;;;;;;4928039;29;20055;-71
2023/10/03 11:16:26;;;;;;;8.23;3.28;;;;;;;;;;4918005;28;20434;-70
2023/10/03 11:18:54;;;;;;;9.05;3.20;;;;;;;;;;4944954;28;20475;-70
2023/10/03 11:21:21;;;;;;;11.48;3.25;;;;;;;;;;4917302;28;20055;-71
2023/10/03 11:24:06;;;;;;;11.90;3.20;;;;;;;;;;4939480;28;20043;-71
2023/10/03 11:26:42;;;;;;;10.77;3.13;;;;;;;;;;4913951;29;20057;-71
2023/10/03 11:29:08;;;;;;;7.32;3.00;;;;;;;;;;4925976;28;20047;-71
2023/10/03 11:31:38;;;;;;;8.57;3.17;;;;;;;;;;4938835;28;20047;-71
2023/10/03 11:34:05;;;;;;;11.55;3.67;;;;;;;;;;4916226;29;20058;-71
2023/10/03 11:36:44;;;;;;;9.45;3.38;;;;;;;;;;4950055;28;20492;-71
2023/10/03 11:39:11;;;;;;;9.80;3.30;;;;;;;;;;4922861;28;20377;-72
2023/10/03 11:41:38;;;;;;;10.60;3.88;;;;;;;;;;4950005;28;20118;-72
2023/10/03 11:44:06;;;;;;;7.53;3.10;;;;;;;;;;4938312;28;20189;-72
2023/10/03 11:46:43;;;;;;;8.57;3.05;;;;;;;;;;4932495;28;20358;-72
2023/10/03 11:49:09;;;;;;;10.80;3.20;;;;;;;;;;4936494;28;20047;-72
2023/10/03 11:51:38;;;;;;;8.57;2.88;;;;;;;;;;4950807;28;20104;-72
2023/10/03 11:54:08;;;;;;;7.30;2.90;;;;;;;;;;4916128;29;20126;-73
2023/10/03 11:56:44;;;;;;;7.00;2.70;;;;;;;;;;4914293;29;20119;-72
2023/10/03 11:59:14;;;;;;;11.85;3.00;;;;;;;;;;4926583;29;20050;-72
2023/10/03 12:01:42;;;;;;;8.23;3.00;;;;;;;;;;4913972;28;20087;-72
2023/10/03 12:04:09;;;;;;;12.18;3.17;;;;;;;;;;4921252;29;20142;-72
2023/10/03 12:06:37;;;;;;;8.23;2.97;;;;;;;;;;4936923;28;20058;-72
2023/10/03 12:09:03;;;;;;;8.70;2.70;;;;;;;;;;4916198;29;20105;-70
2023/10/03 12:11:29;;;;;;;8.48;3.30;;;;;;;;;;4916007;28;20456;-70
2023/10/03 12:13:55;;;;;;;10.43;2.55;;;;;;;;;;4915584;29;20413;-70
2023/10/03 12:16:22;;;;;;;10.20;3.10;;;;;;;;;;4932627;29;20460;-70
2023/10/03 12:18:48;;;;;;;8.00;2.90;;;;;;;;;;4915614;29;20099;-70
2023/10/03 12:21:14;;;;;;;9.05;3.00;;;;;;;;;;4914947;28;20056;-71
2023/10/03 12:23:40;;;;;;;10.20;2.97;;;;;;;;;;4918611;29;20050;-71
2023/10/03 12:26:06;;;;;;;8.07;3.20;;;;;;;;;;4932848;28;20098;-71
2023/10/03 12:28:32;;;;;;;8.82;3.03;;;;;;;;;;4924946;29;20078;-71
2023/10/03 12:30:58;;;;;;;11.32;3.15;;;;;;;;;;4921112;28;20055;-72
2023/10/03 12:33:24;;;;;;;8.85;3.20;;;;;;;;;;4929496;29;20040;-71
2023/10/03 12:35:51;;;;;;;9.02;2.92;;;;;;;;;;4920389;28;20052;-71
2023/10/03 12:38:17;;;;;;;8.93;2.90;;;;;;;;;;4931828;28;20083;-72
2023/10/03 12:40:43;;;;;;;9.05;2.97;;;;;;;;;;4931127;28;20078;-71
2023/10/03 12:43:10;;;;;;;8.52;3.33;;;;;;;;;;4915094;29;20047;-71
2023/10/03 12:45:36;;;;;;;8.25;2.80;;;;;;;;;;4933515;28;20059;-71
2023/10/03 12:48:03;;;;;;;10.55;2.83;;;;;;;;;;4927169;29;20417;-71
2023/10/03 12:50:29;;;;;;;11.18;3.20;;;;;;;;;;4914752;28;20543;-72
2023/10/03 12:52:57;;;;;;;9.57;3.10;;;;;;;;;;4939635;28;20058;-72
2023/10/03 12:55:27;;;;;;;6.93;2.65;;;;;;;;;;4919147;28;20517;-72
2023/10/03 12:57:55;;;;;;;11.25;2.97;;;;;;;;;;4915428;29;20433;-71
2023/10/03 13:00:23;;;;;;;8.40;2.40;;;;;;;;;;4914705;29;20039;-71
2023/10/03 13:02:50;;;;;;;12.88;2.78;;;;;;;;;;4931706;28;20095;-72
2023/10/03 13:05:23;;;;;;;9.43;3.05;;;;;;;;;;4917180;29;20091;-72
2023/10/03 13:07:49;;;;;;;9.77;3.10;;;;;;;;;;4942961;29;20891;-72
2023/10/03 13:10:17;;;;;;;9.88;3.15;;;;;;;;;;4937592;28;20403;-72
2023/10/03 13:12:43;;;;;;;10.38;3.28;;;;;;;;;;4951204;29;20052;-72
2023/10/03 13:15:15;;;;;;;10.73;3.03;;;;;;;;;;4930396;28;20047;-72
2023/10/03 13:17:41;;;;;;;11.25;3.28;;;;;;;;;;4924507;29;20558;-72
2023/10/03 13:20:11;;;;;;;9.15;3.00;;;;;;;;;;4933915;28;20437;-73
2023/10/03 13:22:40;;;;;;;11.25;3.40;;;;;;;;;;4915258;28;20197;-72
2023/10/03 13:25:06;;;;;;;9.60;3.47;;;;;;;;;;4937668;28;20043;-72
2023/10/03 13:27:34;;;;;;;13.43;3.38;;;;;;;;;;4927014;28;20401;-72
2023/10/03 13:30:02;;;;;;;9.02;3.08;;;;;;;;;;4915616;29;20048;-72
2023/10/03 13:32:28;;;;;;;10.38;3.10;;;;;;;;;;4943025;29;20465;-72
2023/10/03 13:34:54;;;;;;;10.32;3.08;;;;;;;;;;4921247;29;20138;-72
2023/10/03 13:37:20;;;;;;;9.70;3.00;;;;;;;;;;4932953;29;20043;-74
2023/10/03 13:39:50;;;;;;;10.63;2.78;;;;;;;;;;4914813;29;20048;-71
2023/10/03 13:42:16;;;;;;;8.02;2.50;;;;;;;;;;4926806;28;20082;-72
2023/10/03 13:44:44;;;;;;;12.27;3.03;;;;;;;;;;4932124;28;20135;-72
2023/10/03 13:47:10;;;;;;;8.50;2.72;;;;;;;;;;4931569;28;20103;-72
2023/10/03 13:49:37;;;;;;;12.85;2.90;;;;;;;;;;4941720;28;20040;-72
2023/10/03 13:52:04;;;;;;;9.32;2.63;;;;;;;;;;4915928;28;20055;-72
2023/10/03 13:54:35;;;;;;;10.15;3.00;;;;;;;;;;4944161;28;20052;-72
2023/10/03 13:57:05;;;;;;;11.88;2.90;;;;;;;;;;4918273;29;20075;-72
2023/10/03 13:59:32;;;;;;;11.55;2.90;;;;;;;;;;4935604;28;20054;-71
2023/10/03 14:01:58;;;;;;;7.65;2.47;;;;;;;;;;4935592;28;20048;-72
2023/10/03 14:04:24;;;;;;;9.25;2.78;;;;;;;;;;4918501;29;20516;-71
2023/10/03 14:06:52;;;;;;;8.57;2.58;;;;;;;;;;4934562;29;20062;-71
2023/10/03 14:09:19;;;;;;;9.95;2.72;;;;;;;;;;4925564;29;20397;-72
2023/10/03 14:11:46;;;;;;;9.02;2.85;;;;;;;;;;4934693;28;20063;-72
2023/10/03 14:14:13;;;;;;;8.45;2.50;;;;;;;;;;4917666;29;20047;-72
2023/10/03 14:16:39;;;;;;;11.32;2.80;;;;;;;;;;4918371;29;20052;-72
2023/10/03 14:19:05;;;;;;;10.43;2.75;;;;;;;;;;4945911;28;20463;-72
2023/10/03 14:21:31;;;;;;;8.63;2.38;;;;;;;;;;4917239;29;20500;-72
2023/10/03 14:23:57;;;;;;;11.48;3.20;;;;;;;;;;4929349;29;20098;-72
2023/10/03 14:26:24;;;;;;;10.10;2.85;;;;;;;;;;4926735;29;20043;-71
2023/10/03 14:28:50;;;;;;;8.35;2.90;;;;;;;;;;4917130;29;20059;-71
2023/10/03 14:31:16;;;;;;;9.30;2.42;;;;;;;;;;4936825;28;20062;-72
2023/10/03 14:33:43;;;;;;;8.02;2.55;;;;;;;;;;4953757;28;20388;-73
2023/10/03 14:36:12;;;;;;;9.23;2.70;;;;;;;;;;4920355;28;20036;-72
2023/10/03 14:38:38;;;;;;;11.77;2.90;;;;;;;;;;4915412;29;20098;-72